createdAt,value
2019-05-07T00:00:45.285Z,9.13
2019-05-07T00:05:44.075Z,7.70
2019-05-07T00:08:13.447Z,7.10
2019-05-07T00:10:42.795Z,7.00
2019-05-07T00:13:12.887Z,7.70
2019-05-07T00:15:42.527Z,7.47
2019-05-07T00:18:12.707Z,7.10
2019-05-07T00:20:43.429Z,7.37
2019-05-07T00:23:12.814Z,7.05
2019-05-07T00:25:42.368Z,7.92
2019-05-07T00:28:12.329Z,7.58
2019-05-07T00:30:42.513Z,7.58
2019-05-07T00:33:13.181Z,7.65
2019-05-07T00:35:45.450Z,6.67
2019-05-07T00:38:16.487Z,7.07
2019-05-07T00:40:59.810Z,6.33
2019-05-07T00:43:32.216Z,7.12
2019-05-07T00:46:03.372Z,6.62
2019-05-07T00:48:33.030Z,7.33
2019-05-07T00:51:22.483Z,6.85
2019-05-07T00:53:52.107Z,6.85
2019-05-07T00:56:22.395Z,7.30
2019-05-07T00:58:52.762Z,7.50
2019-05-07T01:01:22.828Z,7.47
2019-05-07T01:03:53.411Z,6.80
2019-05-07T01:06:26.358Z,6.87
2019-05-07T01:08:54.302Z,7.35
2019-05-07T01:11:23.655Z,7.78
2019-05-07T01:13:53.044Z,8.70
2019-05-07T01:16:22.391Z,7.62
2019-05-07T01:18:53.797Z,8.15
2019-05-07T01:23:52.390Z,7.70
2019-05-07T01:26:22.131Z,6.95
2019-05-07T01:29:02.913Z,8.15
2019-05-07T01:31:37.630Z,6.90
2019-05-07T01:34:12.147Z,7.47
2019-05-07T01:36:42.746Z,7.28
2019-05-07T01:39:13.070Z,8.20
2019-05-07T01:41:43.543Z,7.15
2019-05-07T01:44:12.919Z,6.62
2019-05-07T01:46:42.408Z,6.83
2019-05-07T01:49:12.566Z,6.55
2019-05-07T01:51:42.404Z,7.15
2019-05-07T01:54:12.962Z,6.37
2019-05-07T01:56:43.439Z,7.62
2019-05-07T01:59:12.799Z,6.30
2019-05-07T02:01:43.662Z,7.75
2019-05-07T02:04:29.714Z,7.10
2019-05-07T02:07:06.489Z,7.42
2019-05-07T02:09:38.460Z,7.30
2019-05-07T02:12:15.652Z,6.47
2019-05-07T02:14:45.185Z,7.17
2019-05-07T02:17:14.786Z,6.95
2019-05-07T02:19:44.170Z,7.35
2019-05-07T02:22:13.545Z,7.53
2019-05-07T02:24:43.419Z,7.37
2019-05-07T02:27:13.037Z,7.33
2019-05-07T02:29:43.048Z,6.62
2019-05-07T02:32:13.323Z,7.33
2019-05-07T02:34:44.206Z,6.78
2019-05-07T02:37:15.557Z,7.00
2019-05-07T02:40:04.935Z,7.27
2019-05-07T02:42:34.338Z,7.12
2019-05-07T02:45:06.225Z,6.35
2019-05-07T02:47:35.940Z,6.58
2019-05-07T02:50:16.559Z,7.37
2019-05-07T02:52:53.334Z,7.53
2019-05-07T02:55:39.827Z,7.08
2019-05-07T02:58:09.261Z,6.60
2019-05-07T03:00:38.689Z,6.60
2019-05-07T03:03:08.127Z,6.67
2019-05-07T03:05:37.722Z,7.67
2019-05-07T03:08:08.635Z,7.30
2019-05-07T03:10:37.971Z,8.25
2019-05-07T03:13:07.291Z,8.25
2019-05-07T03:15:36.629Z,7.15
2019-05-07T03:18:06.048Z,7.15
2019-05-07T03:20:44.753Z,6.65
2019-05-07T03:23:15.812Z,7.17
2019-05-07T03:25:49.592Z,8.57
2019-05-07T03:28:23.199Z,7.78
2019-05-07T03:30:56.883Z,7.53
2019-05-07T03:33:27.008Z,7.78
2019-05-07T03:35:58.281Z,9.75
2019-05-07T03:38:27.713Z,12.47
2019-05-07T03:40:57.096Z,10.38
2019-05-07T03:43:27.003Z,11.75
2019-05-07T03:45:57.967Z,12.43
2019-05-07T03:48:28.916Z,11.65
2019-05-07T03:50:58.308Z,10.87
2019-05-07T03:53:27.631Z,9.68
2019-05-07T03:55:56.989Z,9.03
2019-05-07T03:58:26.303Z,8.18
2019-05-07T04:00:55.663Z,7.22
2019-05-07T04:03:25.079Z,7.35
2019-05-07T04:05:54.516Z,7.33
2019-05-07T04:08:24.066Z,7.10
2019-05-07T04:10:54.123Z,6.85
2019-05-07T04:13:24.330Z,7.25
2019-05-07T04:15:54.038Z,6.08
2019-05-07T04:18:23.997Z,7.55
2019-05-07T04:20:54.547Z,6.03
2019-05-07T04:23:24.833Z,7.00
2019-05-07T04:25:56.193Z,7.00
2019-05-07T04:28:33.732Z,6.95
2019-05-07T04:31:03.693Z,6.50
2019-05-07T04:33:34.760Z,4.37
2019-05-07T04:36:14.696Z,6.97
2019-05-07T04:38:44.315Z,7.75
2019-05-07T04:41:14.111Z,7.70
2019-05-07T04:43:44.593Z,9.75
2019-05-07T04:46:14.536Z,16.87
2019-05-07T04:48:44.326Z,9.23
2019-05-07T04:51:16.476Z,6.92
2019-05-07T04:53:45.854Z,7.73
2019-05-07T04:56:15.224Z,7.90
2019-05-07T04:58:44.655Z,6.85
2019-05-07T05:01:15.672Z,7.62
2019-05-07T05:03:45.024Z,7.10
2019-05-07T05:06:14.448Z,7.67
2019-05-07T05:08:43.892Z,8.33
2019-05-07T05:11:13.285Z,7.22
2019-05-07T05:13:44.731Z,7.87
2019-05-07T05:16:25.367Z,6.87
2019-05-07T05:18:56.204Z,9.18
2019-05-07T05:21:39.248Z,9.53
2019-05-07T05:24:12.489Z,6.95
2019-05-07T05:26:41.887Z,7.45
2019-05-07T05:29:12.147Z,8.25
2019-05-07T05:31:42.662Z,6.72
2019-05-07T05:34:13.067Z,7.40
2019-05-07T05:36:43.756Z,7.33
2019-05-07T05:39:13.346Z,7.87
2019-05-07T05:41:44.839Z,10.70
2019-05-07T05:44:15.843Z,9.48
2019-05-07T05:46:45.175Z,9.10
2019-05-07T05:49:14.538Z,11.03
2019-05-07T05:51:52.498Z,7.33
2019-05-07T05:54:32.496Z,10.55
2019-05-07T05:57:20.178Z,7.55
2019-05-07T06:00:02.126Z,10.23
2019-05-07T06:02:35.835Z,7.70
2019-05-07T06:05:24.479Z,9.23
2019-05-07T06:08:13.669Z,6.83
2019-05-07T06:10:44.659Z,7.45
2019-05-07T06:13:24.938Z,10.07
2019-05-07T06:16:12.534Z,10.60
2019-05-07T06:18:55.685Z,12.63
2019-05-07T06:21:26.681Z,11.15
2019-05-07T06:23:57.748Z,11.60
2019-05-07T06:26:27.078Z,10.67
2019-05-07T06:28:56.444Z,10.78
2019-05-07T06:31:25.867Z,8.23
2019-05-07T06:33:55.268Z,11.55
2019-05-07T06:36:24.623Z,10.70
2019-05-07T06:38:58.535Z,9.83
2019-05-07T06:41:45.971Z,12.50
2019-05-07T06:44:16.979Z,7.80
2019-05-07T06:46:46.367Z,10.05
2019-05-07T06:49:15.695Z,11.28
2019-05-07T06:51:47.720Z,12.43
2019-05-07T06:54:16.084Z,8.93
2019-05-07T06:56:45.419Z,10.95
2019-05-07T06:59:16.552Z,6.12
2019-05-07T07:01:52.822Z,12.15
2019-05-07T07:04:23.178Z,12.75
2019-05-07T07:06:54.320Z,10.65
2019-05-07T07:09:28.252Z,7.87
2019-05-07T07:11:59.234Z,11.48
2019-05-07T07:14:28.551Z,13.93
2019-05-07T07:16:57.878Z,9.95
2019-05-07T07:19:27.216Z,14.33
2019-05-07T07:21:56.576Z,10.18
2019-05-07T07:24:25.930Z,13.05
2019-05-07T07:26:55.334Z,11.43
2019-05-07T07:29:26.339Z,13.68
2019-05-07T07:32:09.440Z,13.58
2019-05-07T07:34:42.529Z,19.62
2019-05-07T07:37:22.945Z,13.85
2019-05-07T07:39:54.135Z,10.80
2019-05-07T07:42:23.495Z,13.67
2019-05-07T07:44:54.472Z,14.28
2019-05-07T07:47:23.935Z,14.60
2019-05-07T07:49:53.355Z,14.30
2019-05-07T07:52:23.055Z,13.08
2019-05-07T07:54:53.013Z,15.83
2019-05-07T07:57:42.621Z,16.52
2019-05-07T08:00:13.463Z,15.88
2019-05-07T08:02:44.430Z,15.90
2019-05-07T08:05:13.934Z,17.13
2019-05-07T08:07:43.291Z,17.35
2019-05-07T08:10:13.266Z,18.87
2019-05-07T08:12:42.723Z,19.98
2019-05-07T08:15:18.077Z,23.32
2019-05-07T08:17:43.626Z,25.12
2019-05-07T08:20:13.582Z,32.38
2019-05-07T08:22:42.952Z,28.83
2019-05-07T08:25:12.652Z,25.15
2019-05-07T08:27:42.158Z,23.02
2019-05-07T08:30:13.684Z,22.25
2019-05-07T08:32:53.362Z,21.62
2019-05-07T08:35:27.251Z,20.15
2019-05-07T08:37:56.680Z,23.22
2019-05-07T08:40:26.006Z,21.52
2019-05-07T08:42:56.303Z,19.25
2019-05-07T08:45:43.929Z,20.25
2019-05-07T08:48:14.915Z,19.52
2019-05-07T08:50:44.237Z,20.80
2019-05-07T08:53:14.570Z,18.73
2019-05-07T08:55:43.959Z,12.50
2019-05-07T08:58:13.290Z,17.15
2019-05-07T09:00:42.632Z,17.92
2019-05-07T09:03:20.121Z,19.57
2019-05-07T09:05:42.990Z,21.37
2019-05-07T09:08:12.890Z,22.58
2019-05-07T09:10:42.494Z,21.15
2019-05-07T09:13:12.882Z,18.92
2019-05-07T09:15:42.599Z,20.82
2019-05-07T09:18:12.469Z,21.68
2019-05-07T09:20:42.550Z,15.68
2019-05-07T09:23:12.349Z,22.37
2019-05-07T09:25:48.705Z,23.25
2019-05-07T09:28:19.472Z,23.57
2019-05-07T09:30:56.486Z,20.88
2019-05-07T09:33:33.419Z,19.87
2019-05-07T09:36:02.861Z,20.00
2019-05-07T09:38:32.798Z,20.82
2019-05-07T09:41:02.744Z,21.90
2019-05-07T09:43:32.617Z,21.60
2019-05-07T09:46:02.732Z,23.65
2019-05-07T09:48:33.824Z,25.12
2019-05-07T09:51:03.385Z,23.18
2019-05-07T09:53:32.751Z,25.15
2019-05-07T09:56:02.290Z,23.92
2019-05-07T09:58:36.673Z,25.65
2019-05-07T10:01:02.842Z,24.97
2019-05-07T10:03:32.561Z,25.90
2019-05-07T10:06:02.342Z,25.37
2019-05-07T10:08:33.034Z,25.88
2019-05-07T10:11:05.051Z,24.92
2019-05-07T10:13:52.367Z,25.23
2019-05-07T10:16:23.504Z,24.37
2019-05-07T10:18:52.980Z,15.05
2019-05-07T10:21:22.379Z,22.10
2019-05-07T10:23:52.179Z,23.45
2019-05-07T10:26:22.646Z,18.35
2019-05-07T10:28:52.901Z,20.40
2019-05-07T10:31:22.422Z,23.10
2019-05-07T10:33:52.387Z,22.98
2019-05-07T10:36:22.877Z,23.00
2019-05-07T10:38:52.362Z,21.70
2019-05-07T10:41:22.377Z,18.70
2019-05-07T10:43:52.053Z,18.02
2019-05-07T10:46:39.656Z,18.80
2019-05-07T10:49:13.302Z,16.23
2019-05-07T10:51:42.700Z,16.57
2019-05-07T10:54:12.613Z,17.25
2019-05-07T10:56:42.038Z,18.20
2019-05-07T10:59:12.178Z,17.23
2019-05-07T11:01:43.478Z,19.35
2019-05-07T11:04:12.911Z,15.63
2019-05-07T11:06:42.347Z,18.87
2019-05-07T11:09:11.715Z,20.43
2019-05-07T11:11:42.343Z,18.95
2019-05-07T11:14:12.299Z,17.17
2019-05-07T11:16:46.898Z,17.32
2019-05-07T11:19:18.800Z,18.70
2019-05-07T11:21:48.019Z,17.45
2019-05-07T11:24:17.391Z,19.35
2019-05-07T11:26:46.817Z,19.10
2019-05-07T11:29:16.188Z,19.30
2019-05-07T11:31:45.515Z,19.40
2019-05-07T11:34:14.838Z,19.12
2019-05-07T11:36:44.190Z,16.55
2019-05-07T11:39:13.594Z,16.95
2019-05-07T11:42:02.371Z,17.00
2019-05-07T11:44:32.795Z,15.38
2019-05-07T11:47:19.954Z,17.65
2019-05-07T11:50:07.142Z,16.35
2019-05-07T11:52:38.117Z,17.65
2019-05-07T11:55:07.713Z,17.70
2019-05-07T11:57:37.159Z,15.80
2019-05-07T12:00:09.831Z,13.50
2019-05-07T12:02:39.277Z,14.47
2019-05-07T12:05:08.936Z,14.10
2019-05-07T12:07:38.343Z,13.10
2019-05-07T12:10:07.738Z,11.95
2019-05-07T12:12:38.747Z,9.33
2019-05-07T12:15:08.234Z,11.77
2019-05-07T12:17:37.574Z,12.68
2019-05-07T12:20:07.587Z,12.80
2019-05-07T12:22:48.981Z,13.15
2019-05-07T12:25:22.110Z,13.08
2019-05-07T12:27:52.797Z,10.75
2019-05-07T12:30:25.044Z,9.63
2019-05-07T12:33:12.454Z,8.75
2019-05-07T12:35:42.142Z,8.30
2019-05-07T12:38:12.816Z,6.42
2019-05-07T12:40:42.994Z,5.70
2019-05-07T12:43:12.335Z,7.40
2019-05-07T12:45:42.093Z,6.72
2019-05-07T12:48:14.308Z,7.93
2019-05-07T12:50:43.777Z,7.40
2019-05-07T12:53:14.777Z,6.53
2019-05-07T12:55:45.818Z,5.20
2019-05-07T12:58:15.142Z,4.47
2019-05-07T13:00:48.822Z,5.00
2019-05-07T13:03:36.356Z,5.12
2019-05-07T13:06:05.755Z,5.05
2019-05-07T13:08:35.116Z,4.92
2019-05-07T13:11:04.612Z,4.72
2019-05-07T13:13:33.973Z,4.75
2019-05-07T13:16:03.420Z,4.20
2019-05-07T13:18:32.748Z,3.77
2019-05-07T13:21:02.567Z,3.90
2019-05-07T13:23:32.035Z,3.17
2019-05-07T13:26:02.604Z,3.67
2019-05-07T13:28:32.269Z,3.98
2019-05-07T13:31:02.347Z,3.55
2019-05-07T13:33:34.619Z,3.60
2019-05-07T13:36:04.779Z,3.30
2019-05-07T13:38:39.183Z,3.55
2019-05-07T13:41:18.556Z,3.47
2019-05-07T13:44:03.511Z,3.60
2019-05-07T13:46:35.647Z,3.50
2019-05-07T13:49:05.307Z,2.98
2019-05-07T13:51:35.007Z,3.12
2019-05-07T13:54:04.637Z,3.12
2019-05-07T13:56:33.992Z,3.30
2019-05-07T13:59:05.087Z,3.40
2019-05-07T14:01:37.312Z,2.90
2019-05-07T14:04:06.631Z,3.37
2019-05-07T14:06:39.110Z,4.20
2019-05-07T14:09:12.294Z,4.30
2019-05-07T14:11:42.308Z,4.30
2019-05-07T14:14:12.366Z,3.80
2019-05-07T14:16:44.669Z,3.72
2019-05-07T14:19:13.152Z,3.60
2019-05-07T14:21:42.652Z,3.80
2019-05-07T14:24:14.701Z,3.35
2019-05-07T14:26:43.007Z,3.70
2019-05-07T14:29:12.418Z,3.98
2019-05-07T14:31:42.634Z,3.83
2019-05-07T14:34:25.984Z,4.08
2019-05-07T14:37:04.734Z,2.60
2019-05-07T14:39:34.351Z,2.92
2019-05-07T14:42:08.947Z,3.35
2019-05-07T14:44:48.558Z,3.10
2019-05-07T14:47:18.828Z,3.05
2019-05-07T14:49:52.682Z,3.22
2019-05-07T14:52:30.109Z,3.33
2019-05-07T14:54:52.450Z,3.20
2019-05-07T14:57:22.206Z,3.67
2019-05-07T14:59:52.458Z,3.58
2019-05-07T15:02:23.619Z,3.92
2019-05-07T15:04:53.477Z,3.50
2019-05-07T15:07:23.027Z,3.67
2019-05-07T15:09:52.960Z,3.45
2019-05-07T15:12:23.351Z,4.03
2019-05-07T15:14:53.021Z,3.83
2019-05-07T15:17:42.029Z,3.67
2019-05-07T15:20:12.403Z,3.60
2019-05-07T15:23:02.546Z,3.35
2019-05-07T15:25:32.566Z,3.67
2019-05-07T15:28:02.067Z,3.58
2019-05-07T15:30:41.780Z,3.62
2019-05-07T15:33:12.753Z,3.47
2019-05-07T15:35:42.550Z,3.30
2019-05-07T15:38:11.963Z,3.55
2019-05-07T15:40:42.238Z,3.62
2019-05-07T15:43:12.886Z,3.58
2019-05-07T15:45:42.433Z,4.12
2019-05-07T15:48:12.715Z,5.67
2019-05-07T15:50:42.876Z,4.85
2019-05-07T15:53:17.279Z,3.80
2019-05-07T15:55:46.702Z,4.08
2019-05-07T15:58:16.144Z,3.42
2019-05-07T16:00:45.559Z,3.45
2019-05-07T16:03:17.190Z,4.00
2019-05-07T16:05:46.506Z,3.70
2019-05-07T16:08:17.238Z,3.25
2019-05-07T16:10:47.530Z,3.30
2019-05-07T16:13:22.975Z,3.25
2019-05-07T16:15:52.947Z,3.75
2019-05-07T16:18:34.531Z,3.22
2019-05-07T16:21:05.001Z,2.92
2019-05-07T16:23:34.781Z,2.70
2019-05-07T16:26:05.310Z,3.58
2019-05-07T16:28:35.894Z,3.70
2019-05-07T16:31:05.247Z,3.72
2019-05-07T16:33:34.839Z,3.20
2019-05-07T16:36:04.712Z,3.40
2019-05-07T16:38:34.026Z,4.10
2019-05-07T16:41:03.391Z,3.60
2019-05-07T16:43:33.722Z,4.12
2019-05-07T16:46:03.111Z,3.30
2019-05-07T16:48:32.834Z,3.55
2019-05-07T16:51:02.405Z,3.40
2019-05-07T16:53:34.991Z,3.50
2019-05-07T16:56:03.052Z,3.60
2019-05-07T16:58:43.265Z,3.52
2019-05-07T17:01:14.293Z,3.50
2019-05-07T17:03:52.083Z,3.70
2019-05-07T17:06:24.748Z,3.58
2019-05-07T17:08:54.533Z,3.65
2019-05-07T17:11:23.887Z,3.40
2019-05-07T17:13:53.323Z,3.60
2019-05-07T17:16:22.954Z,3.33
2019-05-07T17:18:52.483Z,3.80
2019-05-07T17:21:21.953Z,3.40
2019-05-07T17:23:51.920Z,3.95
2019-05-07T17:26:23.182Z,3.35
2019-05-07T17:28:53.952Z,3.50
2019-05-07T17:31:23.349Z,4.20
2019-05-07T17:33:52.713Z,4.55
2019-05-07T17:36:22.462Z,3.85
2019-05-07T17:38:52.944Z,3.80
2019-05-07T17:41:26.820Z,4.00
2019-05-07T17:43:53.358Z,3.93
2019-05-07T17:46:23.690Z,3.20
2019-05-07T17:48:53.978Z,3.10
2019-05-07T17:51:42.203Z,3.95
2019-05-07T17:54:13.524Z,2.83
2019-05-07T17:56:44.265Z,2.87
2019-05-07T17:59:13.821Z,2.77
2019-05-07T18:01:52.894Z,2.50
2019-05-07T18:04:21.574Z,2.83
2019-05-07T18:06:52.192Z,3.30
2019-05-07T18:09:22.600Z,2.87
2019-05-07T18:11:52.404Z,2.77
2019-05-07T18:14:23.246Z,2.60
2019-05-07T18:16:59.470Z,2.50
2019-05-07T18:19:32.941Z,3.37
2019-05-07T18:22:02.641Z,3.87
2019-05-07T18:24:33.196Z,4.05
2019-05-07T18:27:04.500Z,4.40
2019-05-07T18:29:34.863Z,4.92
2019-05-07T18:32:05.996Z,5.15
2019-05-07T18:34:35.390Z,5.75
2019-05-07T18:39:33.588Z,5.75
2019-05-07T18:42:03.024Z,6.92
2019-05-07T18:44:32.443Z,6.85
2019-05-07T18:47:02.369Z,7.45
2019-05-07T18:49:31.989Z,7.67
2019-05-07T18:52:02.938Z,7.37
2019-05-07T18:54:32.472Z,7.40
2019-05-07T18:57:02.876Z,7.92
2019-05-07T18:59:33.962Z,8.50
2019-05-07T19:02:03.635Z,8.35
2019-05-07T19:04:33.059Z,7.70
2019-05-07T19:07:02.710Z,7.95
2019-05-07T19:09:32.258Z,9.10
2019-05-07T19:12:01.675Z,9.70
2019-05-07T19:14:33.315Z,10.38
2019-05-07T19:19:32.924Z,10.60
2019-05-07T19:22:02.333Z,11.30
2019-05-07T19:24:44.316Z,12.28
2019-05-07T19:27:02.694Z,12.27
2019-05-07T19:29:33.115Z,11.12
2019-05-07T19:32:03.180Z,12.18
2019-05-07T19:34:33.686Z,13.35
2019-05-07T19:37:03.019Z,11.95
2019-05-07T19:39:32.625Z,11.48
2019-05-07T19:42:02.708Z,11.00
2019-05-07T19:44:32.215Z,11.65
2019-05-07T19:47:02.095Z,10.32
2019-05-07T19:49:32.441Z,10.43
2019-05-07T19:52:02.087Z,10.90
2019-05-07T19:54:32.432Z,11.05
2019-05-07T19:57:02.711Z,10.13
2019-05-07T19:59:32.724Z,11.12
2019-05-07T20:02:03.908Z,10.80
2019-05-07T20:04:33.223Z,11.07
2019-05-07T20:07:02.902Z,11.20
2019-05-07T20:09:34.019Z,11.12
2019-05-07T20:12:03.362Z,11.70
2019-05-07T20:14:33.275Z,11.20
2019-05-07T20:17:02.899Z,12.80
2019-05-07T20:19:32.852Z,10.82
2019-05-07T20:22:03.571Z,12.37
2019-05-07T20:24:33.240Z,12.68
2019-05-07T20:27:03.149Z,13.22
2019-05-07T20:29:32.795Z,13.00
2019-05-07T20:32:02.224Z,12.28
2019-05-07T20:34:32.946Z,13.00
2019-05-07T20:37:03.071Z,13.22
2019-05-07T20:39:33.505Z,13.43
2019-05-07T20:42:03.188Z,12.47
2019-05-07T20:44:33.669Z,12.20
2019-05-07T20:47:03.063Z,13.43
2019-05-07T20:49:32.428Z,13.70
2019-05-07T20:52:01.818Z,13.15
2019-05-07T20:54:36.583Z,12.65
2019-05-07T20:57:07.610Z,13.88
2019-05-07T20:59:36.987Z,12.47
2019-05-07T21:02:06.512Z,12.70
2019-05-07T21:04:35.808Z,13.32
2019-05-07T21:07:05.138Z,13.50
2019-05-07T21:09:34.468Z,12.50
2019-05-07T21:12:03.803Z,14.07
2019-05-07T21:14:33.134Z,13.20
2019-05-07T21:17:02.460Z,13.32
2019-05-07T21:19:33.182Z,14.10
2019-05-07T21:22:02.759Z,13.70
2019-05-07T21:24:33.076Z,13.60
2019-05-07T21:27:02.779Z,13.60
2019-05-07T21:29:32.771Z,14.28
2019-05-07T21:32:03.334Z,14.75
2019-05-07T21:34:32.798Z,15.23
2019-05-07T21:37:03.248Z,15.80
2019-05-07T21:39:33.135Z,15.30
2019-05-07T21:42:02.735Z,16.73
2019-05-07T21:44:32.585Z,16.60
2019-05-07T21:47:03.900Z,15.83
2019-05-07T21:49:33.255Z,15.00
2019-05-07T21:52:02.610Z,16.57
2019-05-07T21:54:33.683Z,15.40
2019-05-07T21:57:04.650Z,16.10
2019-05-07T21:59:35.936Z,16.57
2019-05-07T22:02:08.260Z,16.42
2019-05-07T22:04:37.684Z,17.17
2019-05-07T22:07:07.206Z,16.95
2019-05-07T22:09:36.529Z,16.90
2019-05-07T22:12:05.880Z,16.37
2019-05-07T22:14:35.286Z,16.87
2019-05-07T22:17:05.315Z,16.75
2019-05-07T22:19:34.675Z,17.42
2019-05-07T22:22:04.242Z,15.58
2019-05-07T22:24:33.605Z,17.10
2019-05-07T22:27:04.191Z,16.57
2019-05-07T22:29:33.847Z,17.37
2019-05-07T22:32:04.811Z,18.15
2019-05-07T22:34:35.779Z,17.07
2019-05-07T22:37:06.252Z,16.23
2019-05-07T22:39:43.184Z,16.48
2019-05-07T22:42:17.043Z,16.85
2019-05-07T22:44:46.403Z,17.10
2019-05-07T22:47:18.732Z,16.65
2019-05-07T22:49:49.876Z,16.65
2019-05-07T22:52:19.383Z,17.27
2019-05-07T22:54:48.804Z,14.83
2019-05-07T22:57:22.954Z,15.10
2019-05-07T22:59:52.388Z,16.30
2019-05-07T23:02:22.783Z,15.85
2019-05-07T23:04:53.295Z,15.95
2019-05-07T23:07:22.659Z,16.85
2019-05-07T23:09:52.310Z,18.15
2019-05-07T23:12:22.784Z,16.67
2019-05-07T23:14:53.731Z,14.80
2019-05-07T23:17:23.333Z,16.75
2019-05-07T23:19:55.065Z,16.95
2019-05-07T23:22:23.730Z,16.70
2019-05-07T23:24:53.087Z,16.87
2019-05-07T23:27:22.624Z,16.20
2019-05-07T23:29:52.919Z,16.85
2019-05-07T23:32:22.554Z,15.72
2019-05-07T23:34:52.703Z,17.32
2019-05-07T23:37:22.597Z,15.75
2019-05-07T23:39:53.755Z,16.35
2019-05-07T23:44:54.178Z,16.67
2019-05-07T23:47:24.584Z,15.30
2019-05-07T23:49:53.906Z,16.27
2019-05-07T23:52:23.309Z,16.05
2019-05-07T23:54:52.697Z,16.62
2019-05-07T23:57:23.116Z,16.32
2019-05-07T23:59:53.033Z,15.45
